sensor_id;sensor_type;location;lat;lon;timestamp;pressure;altitude;pressure_sealevel;temperature;humidity
14232;BME280;7200;52.194;9.900;2022-10-16T00:01:35;99962.53;;;14.13;100.00
14232;BME280;7200;52.194;9.900;2022-10-16T00:04:01;99965.38;;;14.10;100.00
14232;BME280;7200;52.194;9.900;2022-10-16T00:06:27;99947.94;;;14.06;100.00
14232;BME280;7200;52.194;9.900;2022-10-16T00:08:53;99966.50;;;14.06;100.00
14232;BME280;7200;52.194;9.900;2022-10-16T00:11:27;99969.53;;;14.14;100.00
14232;BME280;7200;52.194;9.900;2022-10-16T00:13:59;99957.78;;;14.04;100.00
14232;BME280;7200;52.194;9.900;2022-10-16T00:16:26;99951.25;;;14.09;100.00
14232;BME280;7200;52.194;9.900;2022-10-16T00:18:52;99953.31;;;14.04;100.00
14232;BME280;7200;52.194;9.900;2022-10-16T00:21:23;99968.25;;;14.05;100.00
14232;BME280;7200;52.194;9.900;2022-10-16T00:23:58;99961.19;;;14.06;100.00
14232;BME280;7200;52.194;9.900;2022-10-16T00:26:25;99958.16;;;14.12;100.00
14232;BME280;7200;52.194;9.900;2022-10-16T00:28:51;99968.59;;;14.15;100.00
14232;BME280;7200;52.194;9.900;2022-10-16T00:31:19;99967.72;;;14.14;100.00
14232;BME280;7200;52.194;9.900;2022-10-16T00:33:45;99963.56;;;14.10;100.00
14232;BME280;7200;52.194;9.900;2022-10-16T00:36:13;99981.38;;;14.08;100.00
14232;BME280;7200;52.194;9.900;2022-10-16T00:38:39;99977.66;;;14.11;100.00
14232;BME280;7200;52.194;9.900;2022-10-16T00:41:06;99994.47;;;14.11;100.00
14232;BME280;7200;52.194;9.900;2022-10-16T00:43:52;100012.22;;;14.25;100.00
14232;BME280;7200;52.194;9.900;2022-10-16T00:49:11;99993.56;;;14.27;100.00
14232;BME280;7200;52.194;9.900;2022-10-16T00:51:41;100009.47;;;14.27;100.00
14232;BME280;7200;52.194;9.900;2022-10-16T00:54:12;100004.25;;;14.25;100.00
14232;BME280;7200;52.194;9.900;2022-10-16T00:56:38;100015.56;;;14.29;100.00
14232;BME280;7200;52.194;9.900;2022-10-16T00:59:14;100004.72;;;14.17;100.00
14232;BME280;7200;52.194;9.900;2022-10-16T01:01:40;100012.66;;;14.17;100.00
14232;BME280;7200;52.194;9.900;2022-10-16T01:04:05;100021.31;;;14.21;100.00
14232;BME280;7200;52.194;9.900;2022-10-16T01:06:39;100018.47;;;14.24;100.00
14232;BME280;7200;52.194;9.900;2022-10-16T01:09:19;100021.63;;;14.31;100.00
14232;BME280;7200;52.194;9.900;2022-10-16T01:11:54;100025.56;;;14.24;100.00
14232;BME280;7200;52.194;9.900;2022-10-16T01:14:38;100023.50;;;14.29;100.00
14232;BME280;7200;52.194;9.900;2022-10-16T01:17:11;100017.81;;;14.20;100.00
14232;BME280;7200;52.194;9.900;2022-10-16T01:22:59;100022.91;;;14.24;100.00
14232;BME280;7200;52.194;9.900;2022-10-16T01:26:08;100029.09;;;14.24;100.00
14232;BME280;7200;52.194;9.900;2022-10-16T01:28:49;100037.06;;;14.24;100.00
14232;BME280;7200;52.194;9.900;2022-10-16T01:31:19;100036.63;;;14.16;100.00
14232;BME280;7200;52.194;9.900;2022-10-16T01:33:49;100041.41;;;14.25;100.00
14232;BME280;7200;52.194;9.900;2022-10-16T01:36:21;100033.28;;;14.12;100.00
14232;BME280;7200;52.194;9.900;2022-10-16T01:38:52;100041.09;;;14.15;100.00
14232;BME280;7200;52.194;9.900;2022-10-16T01:41:25;100041.16;;;14.14;100.00
14232;BME280;7200;52.194;9.900;2022-10-16T01:43:57;100047.59;;;14.10;100.00
14232;BME280;7200;52.194;9.900;2022-10-16T01:46:27;100058.22;;;14.10;100.00
14232;BME280;7200;52.194;9.900;2022-10-16T01:48:53;100060.88;;;14.10;100.00
14232;BME280;7200;52.194;9.900;2022-10-16T01:51:21;100072.06;;;14.15;100.00
14232;BME280;7200;52.194;9.900;2022-10-16T01:53:52;100065.13;;;14.12;100.00
14232;BME280;7200;52.194;9.900;2022-10-16T01:56:18;100063.34;;;14.13;100.00
14232;BME280;7200;52.194;9.900;2022-10-16T01:58:51;100074.63;;;14.16;100.00
14232;BME280;7200;52.194;9.900;2022-10-16T02:01:19;100072.25;;;14.12;100.00
14232;BME280;7200;52.194;9.900;2022-10-16T02:03:46;100070.44;;;14.12;100.00
14232;BME280;7200;52.194;9.900;2022-10-16T02:06:15;100075.31;;;14.04;100.00
14232;BME280;7200;52.194;9.900;2022-10-16T02:08:40;100062.16;;;13.87;100.00
14232;BME280;7200;52.194;9.900;2022-10-16T02:11:09;100092.38;;;14.00;100.00
14232;BME280;7200;52.194;9.900;2022-10-16T02:14:01;100098.34;;;14.04;100.00
14232;BME280;7200;52.194;9.900;2022-10-16T02:16:39;100072.25;;;13.80;100.00
14232;BME280;7200;52.194;9.900;2022-10-16T02:19:05;100087.16;;;13.82;100.00
14232;BME280;7200;52.194;9.900;2022-10-16T02:24:24;100098.25;;;13.73;100.00
14232;BME280;7200;52.194;9.900;2022-10-16T02:27:13;100093.53;;;13.62;100.00
14232;BME280;7200;52.194;9.900;2022-10-16T02:29:47;100105.19;;;13.60;100.00
14232;BME280;7200;52.194;9.900;2022-10-16T02:32:19;100119.63;;;13.70;100.00
14232;BME280;7200;52.194;9.900;2022-10-16T02:34:48;100117.25;;;13.66;100.00
14232;BME280;7200;52.194;9.900;2022-10-16T02:37:14;100105.00;;;13.63;100.00
14232;BME280;7200;52.194;9.900;2022-10-16T02:39:41;100103.28;;;13.62;100.00
14232;BME280;7200;52.194;9.900;2022-10-16T02:42:13;100119.09;;;13.63;100.00
14232;BME280;7200;52.194;9.900;2022-10-16T02:44:39;100096.63;;;13.55;100.00
14232;BME280;7200;52.194;9.900;2022-10-16T02:47:04;100080.06;;;13.34;100.00
14232;BME280;7200;52.194;9.900;2022-10-16T02:49:30;100096.75;;;13.36;100.00
14232;BME280;7200;52.194;9.900;2022-10-16T02:51:55;100100.31;;;13.35;100.00
14232;BME280;7200;52.194;9.900;2022-10-16T02:54:20;100098.69;;;13.32;100.00
14232;BME280;7200;52.194;9.900;2022-10-16T02:56:46;100106.56;;;13.34;100.00
14232;BME280;7200;52.194;9.900;2022-10-16T02:59:11;100104.63;;;13.37;100.00
14232;BME280;7200;52.194;9.900;2022-10-16T03:01:36;100110.91;;;13.35;100.00
14232;BME280;7200;52.194;9.900;2022-10-16T03:04:01;100105.88;;;13.30;100.00
14232;BME280;7200;52.194;9.900;2022-10-16T03:06:27;100119.06;;;13.32;100.00
14232;BME280;7200;52.194;9.900;2022-10-16T03:08:52;100104.06;;;13.31;100.00
14232;BME280;7200;52.194;9.900;2022-10-16T03:11:17;100100.06;;;13.22;100.00
14232;BME280;7200;52.194;9.900;2022-10-16T03:13:43;100096.13;;;13.13;100.00
14232;BME280;7200;52.194;9.900;2022-10-16T03:16:08;100096.22;;;13.12;100.00
14232;BME280;7200;52.194;9.900;2022-10-16T03:18:33;100093.91;;;13.05;100.00
14232;BME280;7200;52.194;9.900;2022-10-16T03:20:58;100100.66;;;13.11;100.00
14232;BME280;7200;52.194;9.900;2022-10-16T03:23:24;100101.28;;;12.99;100.00
14232;BME280;7200;52.194;9.900;2022-10-16T03:25:49;100099.97;;;12.90;100.00
14232;BME280;7200;52.194;9.900;2022-10-16T03:28:14;100120.78;;;12.98;100.00
14232;BME280;7200;52.194;9.900;2022-10-16T03:30:39;100118.50;;;12.90;100.00
14232;BME280;7200;52.194;9.900;2022-10-16T03:33:05;100127.25;;;12.92;100.00
14232;BME280;7200;52.194;9.900;2022-10-16T03:35:31;100129.72;;;12.95;100.00
14232;BME280;7200;52.194;9.900;2022-10-16T03:37:57;100131.81;;;13.06;100.00
14232;BME280;7200;52.194;9.900;2022-10-16T03:40:22;100126.59;;;13.04;100.00
14232;BME280;7200;52.194;9.900;2022-10-16T03:42:48;100127.63;;;13.02;100.00
14232;BME280;7200;52.194;9.900;2022-10-16T03:45:13;100144.44;;;13.01;100.00
14232;BME280;7200;52.194;9.900;2022-10-16T03:47:38;100131.88;;;13.04;100.00
14232;BME280;7200;52.194;9.900;2022-10-16T03:50:04;100137.34;;;13.01;100.00
14232;BME280;7200;52.194;9.900;2022-10-16T03:52:30;100145.28;;;13.01;100.00
14232;BME280;7200;52.194;9.900;2022-10-16T03:54:55;100136.75;;;12.96;100.00
14232;BME280;7200;52.194;9.900;2022-10-16T03:57:20;100125.66;;;12.88;100.00
14232;BME280;7200;52.194;9.900;2022-10-16T03:59:46;100142.94;;;12.95;100.00
14232;BME280;7200;52.194;9.900;2022-10-16T04:02:11;100142.44;;;12.89;100.00
14232;BME280;7200;52.194;9.900;2022-10-16T04:04:36;100141.25;;;12.94;100.00
14232;BME280;7200;52.194;9.900;2022-10-16T04:07:02;100146.06;;;12.86;100.00
14232;BME280;7200;52.194;9.900;2022-10-16T04:09:27;100154.56;;;12.93;100.00
14232;BME280;7200;52.194;9.900;2022-10-16T04:11:52;100141.97;;;12.98;100.00
14232;BME280;7200;52.194;9.900;2022-10-16T04:14:17;100142.03;;;12.96;100.00
14232;BME280;7200;52.194;9.900;2022-10-16T04:16:43;100154.25;;;12.99;100.00
14232;BME280;7200;52.194;9.900;2022-10-16T04:19:09;100170.91;;;13.01;100.00
14232;BME280;7200;52.194;9.900;2022-10-16T04:21:35;100170.91;;;13.01;100.00
14232;BME280;7200;52.194;9.900;2022-10-16T04:24:00;100168.34;;;12.99;100.00
14232;BME280;7200;52.194;9.900;2022-10-16T04:26:25;100183.06;;;13.05;100.00
14232;BME280;7200;52.194;9.900;2022-10-16T04:28:50;100188.28;;;13.07;100.00
14232;BME280;7200;52.194;9.900;2022-10-16T04:31:16;100189.13;;;13.07;100.00
14232;BME280;7200;52.194;9.900;2022-10-16T04:33:44;100188.28;;;13.07;100.00
14232;BME280;7200;52.194;9.900;2022-10-16T04:36:09;100191.50;;;13.13;100.00
14232;BME280;7200;52.194;9.900;2022-10-16T04:38:35;100187.28;;;13.09;100.00
14232;BME280;7200;52.194;9.900;2022-10-16T04:41:03;100186.47;;;13.07;100.00
14232;BME280;7200;52.194;9.900;2022-10-16T04:43:28;100179.34;;;13.09;100.00
14232;BME280;7200;52.194;9.900;2022-10-16T04:45:54;100173.09;;;13.10;100.00
14232;BME280;7200;52.194;9.900;2022-10-16T04:48:22;100185.25;;;13.14;100.00
14232;BME280;7200;52.194;9.900;2022-10-16T04:50:48;100172.25;;;13.10;100.00
14232;BME280;7200;52.194;9.900;2022-10-16T04:53:13;100182.06;;;13.08;100.00
14232;BME280;7200;52.194;9.900;2022-10-16T04:55:39;100177.88;;;13.03;100.00
14232;BME280;7200;52.194;9.900;2022-10-16T04:58:04;100185.94;;;13.00;100.00
14232;BME280;7200;52.194;9.900;2022-10-16T05:00:29;100197.25;;;13.04;100.00
14232;BME280;7200;52.194;9.900;2022-10-16T05:02:55;100199.84;;;13.05;100.00
14232;BME280;7200;52.194;9.900;2022-10-16T05:05:20;100199.44;;;13.13;100.00
14232;BME280;7200;52.194;9.900;2022-10-16T05:07:46;100209.00;;;13.16;100.00
14232;BME280;7200;52.194;9.900;2022-10-16T05:10:12;100220.25;;;13.21;100.00
14232;BME280;7200;52.194;9.900;2022-10-16T05:12:37;100200.91;;;13.19;100.00
14232;BME280;7200;52.194;9.900;2022-10-16T05:15:03;100199.13;;;13.19;100.00
14232;BME280;7200;52.194;9.900;2022-10-16T05:17:28;100205.34;;;13.18;100.00
14232;BME280;7200;52.194;9.900;2022-10-16T05:19:54;100213.28;;;13.18;100.00
14232;BME280;7200;52.194;9.900;2022-10-16T05:22:19;100209.72;;;13.19;100.00
14232;BME280;7200;52.194;9.900;2022-10-16T05:24:44;100211.44;;;13.20;100.00
14232;BME280;7200;52.194;9.900;2022-10-16T05:27:10;100216.31;;;13.11;100.00
14232;BME280;7200;52.194;9.900;2022-10-16T05:29:36;100213.06;;;13.05;100.00
14232;BME280;7200;52.194;9.900;2022-10-16T05:32:01;100211.72;;;12.97;100.00
14232;BME280;7200;52.194;9.900;2022-10-16T05:34:27;100226.19;;;12.90;100.00
14232;BME280;7200;52.194;9.900;2022-10-16T05:36:52;100225.09;;;12.76;100.00
14232;BME280;7200;52.194;9.900;2022-10-16T05:39:17;100225.88;;;12.78;100.00
14232;BME280;7200;52.194;9.900;2022-10-16T05:41:43;100238.91;;;12.83;100.00
14232;BME280;7200;52.194;9.900;2022-10-16T05:44:08;100238.03;;;12.82;100.00
14232;BME280;7200;52.194;9.900;2022-10-16T05:46:34;100247.44;;;12.88;100.00
14232;BME280;7200;52.194;9.900;2022-10-16T05:48:59;100250.88;;;12.90;100.00
14232;BME280;7200;52.194;9.900;2022-10-16T05:51:24;100255.97;;;12.95;100.00
14232;BME280;7200;52.194;9.900;2022-10-16T05:53:50;100254.09;;;12.97;100.00
14232;BME280;7200;52.194;9.900;2022-10-16T05:56:15;100248.50;;;13.03;100.00
14232;BME280;7200;52.194;9.900;2022-10-16T05:58:41;100258.63;;;13.12;100.00
14232;BME280;7200;52.194;9.900;2022-10-16T06:01:15;100270.63;;;13.19;100.00
14232;BME280;7200;52.194;9.900;2022-10-16T06:03:41;100275.88;;;13.21;100.00
14232;BME280;7200;52.194;9.900;2022-10-16T06:06:14;100289.59;;;13.29;100.00
14232;BME280;7200;52.194;9.900;2022-10-16T06:08:41;100288.69;;;13.30;100.00
14232;BME280;7200;52.194;9.900;2022-10-16T06:11:08;100275.44;;;13.30;100.00
14232;BME280;7200;52.194;9.900;2022-10-16T06:13:34;100278.56;;;13.38;100.00
14232;BME280;7200;52.194;9.900;2022-10-16T06:16:01;100271.38;;;13.40;100.00
14232;BME280;7200;52.194;9.900;2022-10-16T06:18:28;100271.31;;;13.42;100.00
14232;BME280;7200;52.194;9.900;2022-10-16T06:20:54;100271.25;;;13.43;100.00
14232;BME280;7200;52.194;9.900;2022-10-16T06:23:19;100287.06;;;13.45;100.00
14232;BME280;7200;52.194;9.900;2022-10-16T06:25:45;100289.72;;;13.45;100.00
14232;BME280;7200;52.194;9.900;2022-10-16T06:28:10;100301.88;;;13.49;100.00
14232;BME280;7200;52.194;9.900;2022-10-16T06:30:35;100306.06;;;13.53;100.00
14232;BME280;7200;52.194;9.900;2022-10-16T06:33:00;100311.94;;;13.60;100.00
14232;BME280;7200;52.194;9.900;2022-10-16T06:35:26;100317.84;;;13.65;100.00
14232;BME280;7200;52.194;9.900;2022-10-16T06:37:53;100315.81;;;13.70;100.00
14232;BME280;7200;52.194;9.900;2022-10-16T06:40:18;100305.91;;;13.74;100.00
14232;BME280;7200;52.194;9.900;2022-10-16T06:42:44;100308.41;;;13.77;100.00
14232;BME280;7200;52.194;9.900;2022-10-16T06:45:09;100319.56;;;13.83;100.00
14232;BME280;7200;52.194;9.900;2022-10-16T06:47:35;100327.03;;;13.93;100.00
14232;BME280;7200;52.194;9.900;2022-10-16T06:50:00;100334.59;;;14.00;100.00
14232;BME280;7200;52.194;9.900;2022-10-16T06:52:28;100334.09;;;14.10;100.00
14232;BME280;7200;52.194;9.900;2022-10-16T06:54:53;100325.13;;;14.12;100.00
14232;BME280;7200;52.194;9.900;2022-10-16T06:57:18;100343.75;;;14.28;100.00
14232;BME280;7200;52.194;9.900;2022-10-16T06:59:44;100338.66;;;14.41;100.00
14232;BME280;7200;52.194;9.900;2022-10-16T07:02:09;100348.44;;;14.56;100.00
14232;BME280;7200;52.194;9.900;2022-10-16T07:04:35;100358.16;;;14.73;100.00
14232;BME280;7200;52.194;9.900;2022-10-16T07:07:01;100353.69;;;14.90;100.00
14232;BME280;7200;52.194;9.900;2022-10-16T07:09:26;100329.78;;;15.06;100.00
14232;BME280;7200;52.194;9.900;2022-10-16T07:11:51;100323.88;;;15.16;100.00
14232;BME280;7200;52.194;9.900;2022-10-16T07:14:18;100314.59;;;15.24;100.00
14232;BME280;7200;52.194;9.900;2022-10-16T07:16:44;100340.09;;;15.42;100.00
14232;BME280;7200;52.194;9.900;2022-10-16T07:19:09;100333.19;;;15.40;100.00
14232;BME280;7200;52.194;9.900;2022-10-16T07:21:37;100320.56;;;15.43;100.00
14232;BME280;7200;52.194;9.900;2022-10-16T07:24:04;100315.94;;;15.47;100.00
14232;BME280;7200;52.194;9.900;2022-10-16T07:26:33;100309.09;;;15.57;100.00
14232;BME280;7200;52.194;9.900;2022-10-16T07:28:59;100316.91;;;15.60;100.00
14232;BME280;7200;52.194;9.900;2022-10-16T07:31:25;100318.78;;;15.74;100.00
14232;BME280;7200;52.194;9.900;2022-10-16T07:33:50;100308.31;;;15.71;100.00
14232;BME280;7200;52.194;9.900;2022-10-16T07:36:18;100308.38;;;15.69;100.00
14232;BME280;7200;52.194;9.900;2022-10-16T07:38:44;100323.91;;;15.77;100.00
14232;BME280;7200;52.194;9.900;2022-10-16T07:41:12;100316.03;;;15.75;100.00
14232;BME280;7200;52.194;9.900;2022-10-16T07:43:37;100309.41;;;15.83;100.00
14232;BME280;7200;52.194;9.900;2022-10-16T07:46:03;100298.47;;;15.87;100.00
14232;BME280;7200;52.194;9.900;2022-10-16T07:48:30;100308.72;;;15.93;100.00
14232;BME280;7200;52.194;9.900;2022-10-16T07:51:04;100320.91;;;16.12;100.00
14232;BME280;7200;52.194;9.900;2022-10-16T07:53:33;100325.50;;;16.24;100.00
14232;BME280;7200;52.194;9.900;2022-10-16T07:55:59;100308.19;;;16.31;100.00
14232;BME280;7200;52.194;9.900;2022-10-16T07:58:25;100305.03;;;16.25;100.00
14232;BME280;7200;52.194;9.900;2022-10-16T08:00:51;100305.81;;;16.27;100.00
14232;BME280;7200;52.194;9.900;2022-10-16T08:03:16;100304.06;;;16.40;100.00
14232;BME280;7200;52.194;9.900;2022-10-16T08:05:42;100294.47;;;16.23;100.00
14232;BME280;7200;52.194;9.900;2022-10-16T08:08:12;100288.78;;;16.15;100.00
14232;BME280;7200;52.194;9.900;2022-10-16T08:10:38;100297.63;;;16.15;100.00
14232;BME280;7200;52.194;9.900;2022-10-16T08:13:03;100296.59;;;16.18;100.00
14232;BME280;7200;52.194;9.900;2022-10-16T08:15:28;100310.28;;;16.26;100.00
14232;BME280;7200;52.194;9.900;2022-10-16T08:17:55;100299.06;;;16.07;100.00
14232;BME280;7200;52.194;9.900;2022-10-16T08:20:21;100308.66;;;16.09;100.00
14232;BME280;7200;52.194;9.900;2022-10-16T08:22:46;100320.09;;;16.26;100.00
14232;BME280;7200;52.194;9.900;2022-10-16T08:25:11;100321.97;;;16.24;100.00
14232;BME280;7200;52.194;9.900;2022-10-16T08:27:36;100317.69;;;16.21;100.00
14232;BME280;7200;52.194;9.900;2022-10-16T08:30:02;100327.50;;;16.35;100.00
14232;BME280;7200;52.194;9.900;2022-10-16T08:32:27;100320.28;;;16.37;100.00
14232;BME280;7200;52.194;9.900;2022-10-16T08:34:53;100323.09;;;16.34;100.00
14232;BME280;7200;52.194;9.900;2022-10-16T08:37:18;100325.47;;;16.39;100.00
14232;BME280;7200;52.194;9.900;2022-10-16T08:39:43;100330.88;;;16.51;100.00
14232;BME280;7200;52.194;9.900;2022-10-16T08:42:35;100333.72;;;16.63;100.00
14232;BME280;7200;52.194;9.900;2022-10-16T08:45:43;100340.97;;;16.75;100.00
14232;BME280;7200;52.194;9.900;2022-10-16T08:48:23;100331.81;;;16.79;100.00
14232;BME280;7200;52.194;9.900;2022-10-16T08:50:52;100313.06;;;16.81;100.00
14232;BME280;7200;52.194;9.900;2022-10-16T08:53:25;100322.41;;;16.88;100.00
14232;BME280;7200;52.194;9.900;2022-10-16T08:55:53;100314.50;;;16.86;100.00
14232;BME280;7200;52.194;9.900;2022-10-16T08:58:21;100312.22;;;16.80;100.00
14232;BME280;7200;52.194;9.900;2022-10-16T09:00:50;100319.06;;;16.70;100.00
14232;BME280;7200;52.194;9.900;2022-10-16T09:06:29;100307.56;;;16.69;100.00
14232;BME280;7200;52.194;9.900;2022-10-16T09:14:10;100311.66;;;16.75;100.00
14232;BME280;7200;52.194;9.900;2022-10-16T09:16:46;100325.75;;;16.91;100.00
14232;BME280;7200;52.194;9.900;2022-10-16T09:19:20;100321.81;;;16.97;100.00
14232;BME280;7200;52.194;9.900;2022-10-16T09:21:49;100320.09;;;16.96;100.00
14232;BME280;7200;52.194;9.900;2022-10-16T09:24:18;100310.41;;;16.81;100.00
14232;BME280;7200;52.194;9.900;2022-10-16T09:26:45;100315.66;;;16.82;100.00
14232;BME280;7200;52.194;9.900;2022-10-16T09:29:14;100324.28;;;17.00;100.00
14232;BME280;7200;52.194;9.900;2022-10-16T09:31:41;100326.34;;;17.09;100.00
14232;BME280;7200;52.194;9.900;2022-10-16T09:34:17;100323.63;;;17.24;100.00
14232;BME280;7200;52.194;9.900;2022-10-16T09:36:45;100320.66;;;17.28;100.00
14232;BME280;7200;52.194;9.900;2022-10-16T09:39:11;100320.56;;;17.30;100.00
14232;BME280;7200;52.194;9.900;2022-10-16T09:41:39;100307.03;;;17.33;100.00
14232;BME280;7200;52.194;9.900;2022-10-16T09:44:19;100311.28;;;17.36;100.00
14232;BME280;7200;52.194;9.900;2022-10-16T09:46:46;100316.53;;;17.37;100.00
14232;BME280;7200;52.194;9.900;2022-10-16T09:49:23;100326.69;;;17.45;100.00
14232;BME280;7200;52.194;9.900;2022-10-16T09:51:50;100342.34;;;17.49;100.00
14232;BME280;7200;52.194;9.900;2022-10-16T09:54:18;100308.25;;;17.55;100.00
14232;BME280;7200;52.194;9.900;2022-10-16T09:56:43;100318.28;;;17.64;100.00
14232;BME280;7200;52.194;9.900;2022-10-16T09:59:13;100307.28;;;17.56;100.00
14232;BME280;7200;52.194;9.900;2022-10-16T10:01:51;100311.03;;;17.66;100.00
14232;BME280;7200;52.194;9.900;2022-10-16T10:04:19;100321.28;;;17.72;100.00
14232;BME280;7200;52.194;9.900;2022-10-16T10:06:49;100341.84;;;17.97;100.00
14232;BME280;7200;52.194;9.900;2022-10-16T10:09:20;100348.47;;;18.04;100.00
14232;BME280;7200;52.194;9.900;2022-10-16T10:11:48;100328.94;;;18.04;100.00
14232;BME280;7200;52.194;9.900;2022-10-16T10:14:23;100326.47;;;18.14;100.00
14232;BME280;7200;52.194;9.900;2022-10-16T10:16:51;100295.28;;;18.01;100.00
14232;BME280;7200;52.194;9.900;2022-10-16T10:19:18;100304.59;;;18.08;100.00
14232;BME280;7200;52.194;9.900;2022-10-16T10:21:44;100314.84;;;18.27;100.00
14232;BME280;7200;52.194;9.900;2022-10-16T10:24:14;100290.47;;;18.19;100.00
14232;BME280;7200;52.194;9.900;2022-10-16T10:27:05;100311.59;;;18.48;100.00
14232;BME280;7200;52.194;9.900;2022-10-16T10:29:54;100316.16;;;18.59;100.00
14232;BME280;7200;52.194;9.900;2022-10-16T10:35:44;100299.56;;;18.66;97.58
14232;BME280;7200;52.194;9.900;2022-10-16T10:41:16;100284.44;;;18.54;97.96
14232;BME280;7200;52.194;9.900;2022-10-16T10:44:26;100296.72;;;18.57;98.44
14232;BME280;7200;52.194;9.900;2022-10-16T10:50:07;100321.16;;;19.13;97.16
14232;BME280;7200;52.194;9.900;2022-10-16T10:55:40;100287.16;;;18.91;93.63
14232;BME280;7200;52.194;9.900;2022-10-16T11:01:00;100273.91;;;18.77;93.90
14232;BME280;7200;52.194;9.900;2022-10-16T11:06:09;100281.88;;;18.53;94.54
14232;BME280;7200;52.194;9.900;2022-10-16T11:08:53;100266.53;;;18.31;94.42
14232;BME280;7200;52.194;9.900;2022-10-16T11:11:31;100299.84;;;18.51;95.96
14232;BME280;7200;52.194;9.900;2022-10-16T11:16:44;100257.88;;;18.27;93.76
14232;BME280;7200;52.194;9.900;2022-10-16T11:22:36;100284.50;;;18.65;92.53
14232;BME280;7200;52.194;9.900;2022-10-16T11:25:13;100255.19;;;18.77;90.48
14232;BME280;7200;52.194;9.900;2022-10-16T11:27:47;100265.75;;;18.91;89.84
14232;BME280;7200;52.194;9.900;2022-10-16T11:30:24;100248.47;;;18.71;88.12
14232;BME280;7200;52.194;9.900;2022-10-16T11:36:06;100279.63;;;18.96;86.99
14232;BME280;7200;52.194;9.900;2022-10-16T11:38:50;100286.78;;;18.96;88.03
14232;BME280;7200;52.194;9.900;2022-10-16T11:41:35;100250.03;;;18.86;86.20
14232;BME280;7200;52.194;9.900;2022-10-16T11:47:40;100226.31;;;19.06;83.06
14232;BME280;7200;52.194;9.900;2022-10-16T11:53:38;100247.56;;;19.32;80.81
14232;BME280;7200;52.194;9.900;2022-10-16T11:56:04;100283.66;;;19.61;80.20
14232;BME280;7200;52.194;9.900;2022-10-16T12:08:46;100250.63;;;19.85;78.09
14232;BME280;7200;52.194;9.900;2022-10-16T12:11:31;100245.38;;;19.72;76.84
14232;BME280;7200;52.194;9.900;2022-10-16T12:16:39;100270.97;;;19.99;77.43
14232;BME280;7200;52.194;9.900;2022-10-16T12:19:16;100249.03;;;19.82;77.28
14232;BME280;7200;52.194;9.900;2022-10-16T12:21:43;100253.66;;;19.80;78.19
14232;BME280;7200;52.194;9.900;2022-10-16T12:24:30;100240.34;;;19.68;77.38
14232;BME280;7200;52.194;9.900;2022-10-16T12:26:56;100252.56;;;19.83;77.87
14232;BME280;7200;52.194;9.900;2022-10-16T12:29:32;100242.22;;;19.78;77.10
14232;BME280;7200;52.194;9.900;2022-10-16T12:31:58;100255.50;;;19.91;76.89
14232;BME280;7200;52.194;9.900;2022-10-16T12:34:29;100255.88;;;20.09;76.95
14232;BME280;7200;52.194;9.900;2022-10-16T12:37:09;100249.56;;;19.99;76.03
14232;BME280;7200;52.194;9.900;2022-10-16T12:39:35;100260.25;;;19.99;76.32
14232;BME280;7200;52.194;9.900;2022-10-16T12:44:44;100255.00;;;19.86;77.38
14232;BME280;7200;52.194;9.900;2022-10-16T12:49:57;100251.47;;;19.74;76.76
14232;BME280;7200;52.194;9.900;2022-10-16T12:52:36;100234.81;;;19.82;75.52
14232;BME280;7200;52.194;9.900;2022-10-16T12:55:03;100283.25;;;20.13;77.35
14232;BME280;7200;52.194;9.900;2022-10-16T12:57:48;100259.16;;;20.01;75.92
14232;BME280;7200;52.194;9.900;2022-10-16T13:00:43;100271.22;;;20.18;75.03
14232;BME280;7200;52.194;9.900;2022-10-16T13:04:10;100208.50;;;19.98;71.87
14232;BME280;7200;52.194;9.900;2022-10-16T13:06:19;100246.84;;;19.76;73.08
14232;BME280;7200;52.194;9.900;2022-10-16T13:14:54;100272.66;;;20.11;74.81
14232;BME280;7200;52.194;9.900;2022-10-16T13:17:53;100243.81;;;20.26;71.63
14232;BME280;7200;52.194;9.900;2022-10-16T13:20:25;100263.91;;;20.20;73.97
14232;BME280;7200;52.194;9.900;2022-10-16T13:23:27;100250.41;;;20.22;73.48
14232;BME280;7200;52.194;9.900;2022-10-16T13:26:12;100252.47;;;20.30;72.93
14232;BME280;7200;52.194;9.900;2022-10-16T13:28:42;100232.16;;;20.16;71.74
14232;BME280;7200;52.194;9.900;2022-10-16T13:31:16;100234.19;;;20.23;70.99
14232;BME280;7200;52.194;9.900;2022-10-16T13:33:46;100257.94;;;20.06;72.93
14232;BME280;7200;52.194;9.900;2022-10-16T13:36:23;100280.59;;;20.24;73.40
14232;BME280;7200;52.194;9.900;2022-10-16T13:38:59;100261.00;;;20.23;72.46
14232;BME280;7200;52.194;9.900;2022-10-16T13:41:25;100304.09;;;20.43;73.72
14232;BME280;7200;52.194;9.900;2022-10-16T13:43:51;100320.56;;;20.61;74.62
14232;BME280;7200;52.194;9.900;2022-10-16T13:46:22;100308.84;;;20.62;74.62
14232;BME280;7200;52.194;9.900;2022-10-16T13:49:25;100245.63;;;20.37;72.08
14232;BME280;7200;52.194;9.900;2022-10-16T13:51:59;100295.53;;;20.49;74.48
14232;BME280;7200;52.194;9.900;2022-10-16T13:54:26;100268.00;;;20.58;73.10
14232;BME280;7200;52.194;9.900;2022-10-16T13:56:53;100262.19;;;20.53;71.50
14232;BME280;7200;52.194;9.900;2022-10-16T13:59:32;100287.41;;;20.62;73.17
14232;BME280;7200;52.194;9.900;2022-10-16T14:01:59;100239.44;;;20.36;72.20
14232;BME280;7200;52.194;9.900;2022-10-16T14:04:28;100237.22;;;20.19;72.50
14232;BME280;7200;52.194;9.900;2022-10-16T14:06:54;100243.69;;;20.05;72.58
14232;BME280;7200;52.194;9.900;2022-10-16T14:09:23;100262.22;;;20.08;73.49
14232;BME280;7200;52.194;9.900;2022-10-16T14:12:00;100251.97;;;20.02;73.10
14232;BME280;7200;52.194;9.900;2022-10-16T14:14:40;100275.59;;;20.08;73.98
14232;BME280;7200;52.194;9.900;2022-10-16T14:17:22;100285.22;;;20.11;74.70
14232;BME280;7200;52.194;9.900;2022-10-16T14:19:51;100266.84;;;19.95;74.08
14232;BME280;7200;52.194;9.900;2022-10-16T14:22:34;100285.09;;;20.12;73.98